sensor_id;sensor_type;location;lat;lon;timestamp;P1;durP1;ratioP1;P2;durP2;ratioP2
151;SDS011;68;48.792;9.164;2023-06-22T04:17:09;35.87;;;16.57;;
151;SDS011;68;48.792;9.164;2023-06-22T04:19:39;30.87;;;15.77;;
151;SDS011;68;48.792;9.164;2023-06-22T04:22:05;29.97;;;16.60;;
151;SDS011;68;48.792;9.164;2023-06-22T04:24:32;31.50;;;16.23;;
151;SDS011;68;48.792;9.164;2023-06-22T04:26:59;32.87;;;18.27;;
151;SDS011;68;48.792;9.164;2023-06-22T04:29:27;33.27;;;17.37;;
151;SDS011;68;48.792;9.164;2023-06-22T04:31:55;31.83;;;16.60;;
151;SDS011;68;48.792;9.164;2023-06-22T04:34:24;30.57;;;15.97;;
151;SDS011;68;48.792;9.164;2023-06-22T04:36:52;31.30;;;14.77;;
151;SDS011;68;48.792;9.164;2023-06-22T04:39:19;29.73;;;16.63;;
151;SDS011;68;48.792;9.164;2023-06-22T04:41:46;25.83;;;14.00;;
151;SDS011;68;48.792;9.164;2023-06-22T04:44:13;27.50;;;14.90;;
151;SDS011;68;48.792;9.164;2023-06-22T04:46:48;32.27;;;16.10;;
151;SDS011;68;48.792;9.164;2023-06-22T04:49:18;31.57;;;13.17;;
151;SDS011;68;48.792;9.164;2023-06-22T04:51:48;32.80;;;16.40;;
151;SDS011;68;48.792;9.164;2023-06-22T04:54:16;29.13;;;14.37;;
151;SDS011;68;48.792;9.164;2023-06-22T04:56:43;34.00;;;14.40;;
151;SDS011;68;48.792;9.164;2023-06-22T04:59:11;31.37;;;14.47;;
151;SDS011;68;48.792;9.164;2023-06-22T05:01:39;30.30;;;11.80;;
151;SDS011;68;48.792;9.164;2023-06-22T05:04:05;30.63;;;14.67;;
151;SDS011;68;48.792;9.164;2023-06-22T05:06:32;35.67;;;15.83;;
151;SDS011;68;48.792;9.164;2023-06-22T05:09:00;27.27;;;15.93;;
151;SDS011;68;48.792;9.164;2023-06-22T05:11:28;34.63;;;15.20;;
151;SDS011;68;48.792;9.164;2023-06-22T05:13:56;28.33;;;13.80;;
151;SDS011;68;48.792;9.164;2023-06-22T05:16:22;27.93;;;13.90;;
151;SDS011;68;48.792;9.164;2023-06-22T05:18:51;35.00;;;13.50;;
151;SDS011;68;48.792;9.164;2023-06-22T05:21:21;34.83;;;13.70;;
151;SDS011;68;48.792;9.164;2023-06-22T05:23:48;27.60;;;13.13;;
151;SDS011;68;48.792;9.164;2023-06-22T05:26:16;30.13;;;15.50;;
151;SDS011;68;48.792;9.164;2023-06-22T05:28:43;30.93;;;14.47;;
151;SDS011;68;48.792;9.164;2023-06-22T05:31:11;30.70;;;14.93;;
151;SDS011;68;48.792;9.164;2023-06-22T05:33:38;28.50;;;14.03;;
151;SDS011;68;48.792;9.164;2023-06-22T05:36:05;30.17;;;14.83;;
151;SDS011;68;48.792;9.164;2023-06-22T05:38:32;29.00;;;14.30;;
151;SDS011;68;48.792;9.164;2023-06-22T05:40:58;28.10;;;15.80;;
151;SDS011;68;48.792;9.164;2023-06-22T05:43:27;31.57;;;14.20;;
151;SDS011;68;48.792;9.164;2023-06-22T05:45:53;32.87;;;15.00;;
151;SDS011;68;48.792;9.164;2023-06-22T05:48:20;34.17;;;18.63;;
151;SDS011;68;48.792;9.164;2023-06-22T05:50:47;31.50;;;17.30;;
151;SDS011;68;48.792;9.164;2023-06-22T05:53:14;39.20;;;13.27;;
151;SDS011;68;48.792;9.164;2023-06-22T05:55:41;31.83;;;16.53;;
151;SDS011;68;48.792;9.164;2023-06-22T05:58:08;28.20;;;14.67;;
151;SDS011;68;48.792;9.164;2023-06-22T06:00:36;35.37;;;12.80;;
151;SDS011;68;48.792;9.164;2023-06-22T06:03:03;31.03;;;16.63;;
151;SDS011;68;48.792;9.164;2023-06-22T06:05:30;29.30;;;13.80;;
151;SDS011;68;48.792;9.164;2023-06-22T06:07:57;29.13;;;14.00;;
151;SDS011;68;48.792;9.164;2023-06-22T06:10:24;32.83;;;13.30;;
151;SDS011;68;48.792;9.164;2023-06-22T06:12:51;28.80;;;13.30;;
151;SDS011;68;48.792;9.164;2023-06-22T06:15:18;25.70;;;11.63;;
151;SDS011;68;48.792;9.164;2023-06-22T06:17:47;34.47;;;11.93;;
151;SDS011;68;48.792;9.164;2023-06-22T06:20:13;25.90;;;12.00;;
151;SDS011;68;48.792;9.164;2023-06-22T06:22:40;26.27;;;12.40;;
151;SDS011;68;48.792;9.164;2023-06-22T06:25:08;27.60;;;12.53;;
151;SDS011;68;48.792;9.164;2023-06-22T06:27:41;27.60;;;11.90;;
151;SDS011;68;48.792;9.164;2023-06-22T06:30:08;25.50;;;12.57;;
151;SDS011;68;48.792;9.164;2023-06-22T06:32:36;24.60;;;10.87;;
151;SDS011;68;48.792;9.164;2023-06-22T06:35:05;33.77;;;14.10;;
151;SDS011;68;48.792;9.164;2023-06-22T06:37:33;28.87;;;12.53;;
151;SDS011;68;48.792;9.164;2023-06-22T06:40:01;30.00;;;10.77;;
151;SDS011;68;48.792;9.164;2023-06-22T06:42:30;27.83;;;10.93;;
151;SDS011;68;48.792;9.164;2023-06-22T06:44:57;25.90;;;10.63;;
151;SDS011;68;48.792;9.164;2023-06-22T06:47:24;28.67;;;11.97;;
151;SDS011;68;48.792;9.164;2023-06-22T06:49:50;26.10;;;11.13;;
151;SDS011;68;48.792;9.164;2023-06-22T06:52:18;30.03;;;11.77;;
151;SDS011;68;48.792;9.164;2023-06-22T06:54:45;27.53;;;9.70;;
151;SDS011;68;48.792;9.164;2023-06-22T06:57:12;28.00;;;11.37;;
151;SDS011;68;48.792;9.164;2023-06-22T06:59:40;26.80;;;11.60;;
151;SDS011;68;48.792;9.164;2023-06-22T07:02:07;24.20;;;10.50;;
151;SDS011;68;48.792;9.164;2023-06-22T07:04:33;28.00;;;10.87;;
151;SDS011;68;48.792;9.164;2023-06-22T07:07:01;28.33;;;10.50;;
151;SDS011;68;48.792;9.164;2023-06-22T07:09:29;23.93;;;10.10;;
151;SDS011;68;48.792;9.164;2023-06-22T07:11:56;28.07;;;10.97;;
151;SDS011;68;48.792;9.164;2023-06-22T07:14:23;28.30;;;11.87;;
151;SDS011;68;48.792;9.164;2023-06-22T07:16:50;26.10;;;10.73;;
151;SDS011;68;48.792;9.164;2023-06-22T07:19:16;23.80;;;9.93;;
151;SDS011;68;48.792;9.164;2023-06-22T07:21:50;24.33;;;9.50;;
151;SDS011;68;48.792;9.164;2023-06-22T07:24:18;24.50;;;10.37;;
151;SDS011;68;48.792;9.164;2023-06-22T07:26:47;26.23;;;10.67;;
151;SDS011;68;48.792;9.164;2023-06-22T07:29:15;29.40;;;9.83;;
151;SDS011;68;48.792;9.164;2023-06-22T07:31:41;31.23;;;9.80;;
151;SDS011;68;48.792;9.164;2023-06-22T07:34:08;31.53;;;10.30;;
151;SDS011;68;48.792;9.164;2023-06-22T07:36:35;27.23;;;9.93;;
151;SDS011;68;48.792;9.164;2023-06-22T07:39:02;28.67;;;9.60;;
151;SDS011;68;48.792;9.164;2023-06-22T07:41:29;26.27;;;9.50;;
151;SDS011;68;48.792;9.164;2023-06-22T07:43:57;28.70;;;9.90;;
151;SDS011;68;48.792;9.164;2023-06-22T07:46:24;23.90;;;10.07;;
151;SDS011;68;48.792;9.164;2023-06-22T07:48:51;27.27;;;8.97;;
151;SDS011;68;48.792;9.164;2023-06-22T07:51:17;26.70;;;8.70;;
151;SDS011;68;48.792;9.164;2023-06-22T07:53:44;29.53;;;9.50;;
151;SDS011;68;48.792;9.164;2023-06-22T07:56:11;23.90;;;8.57;;
151;SDS011;68;48.792;9.164;2023-06-22T07:58:38;26.83;;;9.77;;
151;SDS011;68;48.792;9.164;2023-06-22T08:01:06;26.27;;;8.87;;
151;SDS011;68;48.792;9.164;2023-06-22T08:03:33;22.10;;;8.07;;
151;SDS011;68;48.792;9.164;2023-06-22T08:06:00;26.07;;;8.57;;
151;SDS011;68;48.792;9.164;2023-06-22T08:08:27;24.97;;;9.33;;
151;SDS011;68;48.792;9.164;2023-06-22T08:10:53;26.07;;;9.40;;
151;SDS011;68;48.792;9.164;2023-06-22T08:13:20;20.63;;;8.00;;
151;SDS011;68;48.792;9.164;2023-06-22T08:15:47;28.70;;;8.80;;
151;SDS011;68;48.792;9.164;2023-06-22T08:18:15;23.17;;;9.53;;
151;SDS011;68;48.792;9.164;2023-06-22T08:20:42;25.60;;;8.67;;
151;SDS011;68;48.792;9.164;2023-06-22T08:23:09;23.60;;;8.10;;
151;SDS011;68;48.792;9.164;2023-06-22T08:25:35;26.70;;;8.60;;
151;SDS011;68;48.792;9.164;2023-06-22T08:28:03;24.50;;;8.50;;
151;SDS011;68;48.792;9.164;2023-06-22T08:30:30;27.93;;;8.10;;
151;SDS011;68;48.792;9.164;2023-06-22T08:32:57;26.07;;;8.17;;
151;SDS011;68;48.792;9.164;2023-06-22T08:35:25;25.07;;;8.60;;
151;SDS011;68;48.792;9.164;2023-06-22T08:37:52;21.53;;;7.47;;
151;SDS011;68;48.792;9.164;2023-06-22T08:40:20;24.87;;;7.90;;
151;SDS011;68;48.792;9.164;2023-06-22T08:42:48;25.70;;;7.60;;
151;SDS011;68;48.792;9.164;2023-06-22T08:45:15;23.00;;;8.17;;
151;SDS011;68;48.792;9.164;2023-06-22T08:47:42;26.50;;;7.77;;
151;SDS011;68;48.792;9.164;2023-06-22T08:50:08;29.17;;;8.27;;
151;SDS011;68;48.792;9.164;2023-06-22T08:52:37;26.20;;;8.30;;
151;SDS011;68;48.792;9.164;2023-06-22T08:55:06;26.23;;;7.90;;
151;SDS011;68;48.792;9.164;2023-06-22T08:57:33;24.10;;;7.83;;
151;SDS011;68;48.792;9.164;2023-06-22T09:00:02;24.00;;;7.43;;
151;SDS011;68;48.792;9.164;2023-06-22T09:02:36;26.70;;;7.77;;
151;SDS011;68;48.792;9.164;2023-06-22T09:05:05;27.40;;;7.30;;
151;SDS011;68;48.792;9.164;2023-06-22T09:07:32;29.10;;;7.47;;
151;SDS011;68;48.792;9.164;2023-06-22T09:10:00;28.43;;;7.67;;
151;SDS011;68;48.792;9.164;2023-06-22T09:12:29;24.80;;;7.73;;
151;SDS011;68;48.792;9.164;2023-06-22T09:14:57;26.60;;;7.40;;
151;SDS011;68;48.792;9.164;2023-06-22T09:17:25;25.30;;;7.70;;
151;SDS011;68;48.792;9.164;2023-06-22T09:19:52;33.10;;;8.20;;
151;SDS011;68;48.792;9.164;2023-06-22T09:22:19;28.40;;;8.20;;
151;SDS011;68;48.792;9.164;2023-06-22T09:24:46;27.20;;;8.30;;
151;SDS011;68;48.792;9.164;2023-06-22T09:27:14;26.80;;;7.87;;
151;SDS011;68;48.792;9.164;2023-06-22T09:29:41;25.90;;;7.93;;
151;SDS011;68;48.792;9.164;2023-06-22T09:32:08;25.87;;;7.87;;
151;SDS011;68;48.792;9.164;2023-06-22T09:34:34;28.83;;;8.07;;
151;SDS011;68;48.792;9.164;2023-06-22T09:37:01;37.00;;;8.27;;
151;SDS011;68;48.792;9.164;2023-06-22T09:39:28;31.77;;;7.90;;
151;SDS011;68;48.792;9.164;2023-06-22T09:41:55;25.70;;;8.00;;
151;SDS011;68;48.792;9.164;2023-06-22T09:44:23;27.30;;;8.60;;
151;SDS011;68;48.792;9.164;2023-06-22T09:46:49;28.77;;;7.93;;
151;SDS011;68;48.792;9.164;2023-06-22T09:49:16;29.37;;;8.77;;
151;SDS011;68;48.792;9.164;2023-06-22T09:51:43;30.93;;;8.07;;
151;SDS011;68;48.792;9.164;2023-06-22T09:54:10;26.13;;;8.23;;
151;SDS011;68;48.792;9.164;2023-06-22T09:56:36;28.13;;;8.20;;
151;SDS011;68;48.792;9.164;2023-06-22T09:59:03;38.63;;;8.53;;
151;SDS011;68;48.792;9.164;2023-06-22T10:01:31;28.70;;;7.73;;
151;SDS011;68;48.792;9.164;2023-06-22T10:03:58;26.73;;;8.00;;
151;SDS011;68;48.792;9.164;2023-06-22T10:06:25;42.80;;;8.63;;
151;SDS011;68;48.792;9.164;2023-06-22T10:08:52;31.83;;;8.13;;
151;SDS011;68;48.792;9.164;2023-06-22T10:11:18;29.27;;;8.43;;
151;SDS011;68;48.792;9.164;2023-06-22T10:13:45;32.50;;;8.60;;
151;SDS011;68;48.792;9.164;2023-06-22T10:16:12;26.13;;;8.40;;
151;SDS011;68;48.792;9.164;2023-06-22T10:18:40;26.03;;;8.00;;
151;SDS011;68;48.792;9.164;2023-06-22T10:21:07;27.53;;;8.50;;
151;SDS011;68;48.792;9.164;2023-06-22T10:23:34;26.77;;;8.80;;
151;SDS011;68;48.792;9.164;2023-06-22T10:26:00;26.53;;;7.87;;
151;SDS011;68;48.792;9.164;2023-06-22T10:28:27;42.50;;;8.97;;
151;SDS011;68;48.792;9.164;2023-06-22T10:30:54;25.23;;;8.10;;
151;SDS011;68;48.792;9.164;2023-06-22T10:33:21;29.63;;;8.30;;
151;SDS011;68;48.792;9.164;2023-06-22T10:35:49;33.07;;;8.37;;
151;SDS011;68;48.792;9.164;2023-06-22T10:38:16;31.30;;;8.10;;
151;SDS011;68;48.792;9.164;2023-06-22T10:40:43;28.00;;;7.80;;
151;SDS011;68;48.792;9.164;2023-06-22T10:43:09;28.23;;;8.60;;
151;SDS011;68;48.792;9.164;2023-06-22T10:45:36;29.10;;;8.00;;
151;SDS011;68;48.792;9.164;2023-06-22T10:48:03;27.73;;;8.27;;
151;SDS011;68;48.792;9.164;2023-06-22T10:50:30;36.20;;;8.43;;
151;SDS011;68;48.792;9.164;2023-06-22T10:52:58;31.20;;;8.40;;
151;SDS011;68;48.792;9.164;2023-06-22T10:55:25;34.60;;;8.07;;
151;SDS011;68;48.792;9.164;2023-06-22T10:57:52;32.23;;;9.50;;
151;SDS011;68;48.792;9.164;2023-06-22T11:00:19;33.37;;;8.70;;
151;SDS011;68;48.792;9.164;2023-06-22T11:02:46;29.43;;;8.53;;
151;SDS011;68;48.792;9.164;2023-06-22T11:05:12;30.23;;;9.00;;
151;SDS011;68;48.792;9.164;2023-06-22T11:07:41;25.30;;;7.93;;
151;SDS011;68;48.792;9.164;2023-06-22T11:10:09;34.83;;;8.43;;
151;SDS011;68;48.792;9.164;2023-06-22T11:12:36;29.40;;;8.47;;
151;SDS011;68;48.792;9.164;2023-06-22T11:15:04;32.20;;;8.80;;
151;SDS011;68;48.792;9.164;2023-06-22T11:17:31;29.37;;;8.90;;
151;SDS011;68;48.792;9.164;2023-06-22T11:19:58;35.40;;;8.73;;
151;SDS011;68;48.792;9.164;2023-06-22T11:22:25;29.43;;;8.57;;
151;SDS011;68;48.792;9.164;2023-06-22T11:24:52;28.23;;;8.30;;
151;SDS011;68;48.792;9.164;2023-06-22T11:27:20;40.33;;;8.40;;
151;SDS011;68;48.792;9.164;2023-06-22T11:29:46;35.20;;;8.17;;
151;SDS011;68;48.792;9.164;2023-06-22T11:32:14;23.63;;;7.53;;
151;SDS011;68;48.792;9.164;2023-06-22T11:34:41;32.60;;;7.90;;
151;SDS011;68;48.792;9.164;2023-06-22T11:37:08;32.80;;;8.30;;
151;SDS011;68;48.792;9.164;2023-06-22T11:39:35;30.13;;;8.40;;
151;SDS011;68;48.792;9.164;2023-06-22T11:42:01;33.00;;;7.93;;
151;SDS011;68;48.792;9.164;2023-06-22T11:44:30;25.50;;;7.53;;
151;SDS011;68;48.792;9.164;2023-06-22T11:46:56;30.93;;;7.77;;
151;SDS011;68;48.792;9.164;2023-06-22T11:49:25;30.30;;;8.00;;
151;SDS011;68;48.792;9.164;2023-06-22T11:51:52;33.77;;;9.40;;
151;SDS011;68;48.792;9.164;2023-06-22T11:54:19;30.63;;;8.20;;
151;SDS011;68;48.792;9.164;2023-06-22T11:56:46;36.93;;;8.90;;
151;SDS011;68;48.792;9.164;2023-06-22T11:59:12;30.93;;;7.63;;
151;SDS011;68;48.792;9.164;2023-06-22T12:01:41;34.43;;;8.27;;
151;SDS011;68;48.792;9.164;2023-06-22T12:04:07;30.47;;;8.10;;
151;SDS011;68;48.792;9.164;2023-06-22T12:06:37;36.90;;;7.57;;
151;SDS011;68;48.792;9.164;2023-06-22T12:09:07;28.57;;;8.20;;
151;SDS011;68;48.792;9.164;2023-06-22T12:11:33;27.10;;;8.80;;
151;SDS011;68;48.792;9.164;2023-06-22T12:14:00;30.47;;;9.30;;
151;SDS011;68;48.792;9.164;2023-06-22T12:16:27;26.70;;;8.60;;
151;SDS011;68;48.792;9.164;2023-06-22T12:18:55;28.50;;;8.27;;
151;SDS011;68;48.792;9.164;2023-06-22T12:21:22;27.53;;;8.10;;
151;SDS011;68;48.792;9.164;2023-06-22T12:23:49;32.43;;;9.07;;
151;SDS011;68;48.792;9.164;2023-06-22T12:26:16;30.17;;;8.67;;
151;SDS011;68;48.792;9.164;2023-06-22T12:28:42;42.03;;;9.20;;
151;SDS011;68;48.792;9.164;2023-06-22T12:31:09;30.00;;;8.50;;
151;SDS011;68;48.792;9.164;2023-06-22T12:33:36;36.40;;;8.73;;
151;SDS011;68;48.792;9.164;2023-06-22T12:36:04;35.27;;;9.27;;
151;SDS011;68;48.792;9.164;2023-06-22T12:38:31;29.00;;;8.77;;
151;SDS011;68;48.792;9.164;2023-06-22T12:40:58;37.03;;;8.97;;
151;SDS011;68;48.792;9.164;2023-06-22T12:43:25;27.60;;;9.23;;
151;SDS011;68;48.792;9.164;2023-06-22T12:45:51;33.70;;;9.87;;
151;SDS011;68;48.792;9.164;2023-06-22T12:48:19;33.03;;;9.83;;
151;SDS011;68;48.792;9.164;2023-06-22T12:50:46;25.93;;;8.97;;
151;SDS011;68;48.792;9.164;2023-06-22T12:53:14;26.50;;;7.87;;
151;SDS011;68;48.792;9.164;2023-06-22T12:55:41;30.87;;;8.93;;
151;SDS011;68;48.792;9.164;2023-06-22T12:58:07;28.53;;;8.73;;
151;SDS011;68;48.792;9.164;2023-06-22T13:00:34;29.53;;;8.67;;
151;SDS011;68;48.792;9.164;2023-06-22T13:03:01;39.17;;;9.53;;
151;SDS011;68;48.792;9.164;2023-06-22T13:05:28;29.10;;;8.50;;
151;SDS011;68;48.792;9.164;2023-06-22T13:07:55;30.20;;;8.70;;
151;SDS011;68;48.792;9.164;2023-06-22T13:10:23;42.03;;;8.30;;
151;SDS011;68;48.792;9.164;2023-06-22T13:12:50;32.73;;;8.93;;
151;SDS011;68;48.792;9.164;2023-06-22T13:15:19;28.77;;;8.40;;
151;SDS011;68;48.792;9.164;2023-06-22T13:17:46;30.20;;;8.13;;
151;SDS011;68;48.792;9.164;2023-06-22T13:20:13;34.20;;;8.17;;
151;SDS011;68;48.792;9.164;2023-06-22T13:22:40;32.23;;;8.13;;
151;SDS011;68;48.792;9.164;2023-06-22T13:25:08;34.83;;;9.20;;
151;SDS011;68;48.792;9.164;2023-06-22T13:27:38;25.80;;;8.30;;
151;SDS011;68;48.792;9.164;2023-06-22T13:30:08;32.43;;;10.07;;
151;SDS011;68;48.792;9.164;2023-06-22T13:32:35;35.20;;;10.23;;
151;SDS011;68;48.792;9.164;2023-06-22T13:35:02;28.73;;;9.77;;
151;SDS011;68;48.792;9.164;2023-06-22T13:37:30;28.63;;;9.90;;
151;SDS011;68;48.792;9.164;2023-06-22T13:39:56;41.63;;;10.30;;
151;SDS011;68;48.792;9.164;2023-06-22T13:42:24;35.77;;;10.47;;
151;SDS011;68;48.792;9.164;2023-06-22T13:44:52;30.57;;;10.20;;
151;SDS011;68;48.792;9.164;2023-06-22T13:47:19;34.10;;;10.00;;
151;SDS011;68;48.792;9.164;2023-06-22T13:49:46;29.30;;;9.00;;
151;SDS011;68;48.792;9.164;2023-06-22T13:52:13;39.77;;;9.23;;
151;SDS011;68;48.792;9.164;2023-06-22T13:54:39;31.03;;;9.00;;
151;SDS011;68;48.792;9.164;2023-06-22T13:57:06;27.07;;;8.63;;
151;SDS011;68;48.792;9.164;2023-06-22T13:59:33;30.63;;;8.83;;
151;SDS011;68;48.792;9.164;2023-06-22T14:02:02;25.30;;;8.80;;
151;SDS011;68;48.792;9.164;2023-06-22T14:04:29;36.97;;;8.80;;
151;SDS011;68;48.792;9.164;2023-06-22T14:06:55;30.50;;;7.90;;
151;SDS011;68;48.792;9.164;2023-06-22T14:09:22;33.43;;;9.80;;
151;SDS011;68;48.792;9.164;2023-06-22T14:11:49;37.10;;;9.50;;
151;SDS011;68;48.792;9.164;2023-06-22T14:14:16;27.43;;;9.00;;
151;SDS011;68;48.792;9.164;2023-06-22T14:16:42;29.10;;;8.40;;
151;SDS011;68;48.792;9.164;2023-06-22T14:19:10;30.00;;;8.20;;
151;SDS011;68;48.792;9.164;2023-06-22T14:21:37;30.47;;;8.47;;
151;SDS011;68;48.792;9.164;2023-06-22T14:24:04;32.47;;;7.60;;
151;SDS011;68;48.792;9.164;2023-06-22T14:26:31;27.87;;;8.03;;
151;SDS011;68;48.792;9.164;2023-06-22T14:28:58;37.23;;;8.50;;
151;SDS011;68;48.792;9.164;2023-06-22T14:31:24;30.47;;;7.47;;
151;SDS011;68;48.792;9.164;2023-06-22T14:33:51;27.00;;;7.73;;
151;SDS011;68;48.792;9.164;2023-06-22T14:36:19;29.43;;;7.50;;
151;SDS011;68;48.792;9.164;2023-06-22T14:38:46;32.93;;;7.30;;
151;SDS011;68;48.792;9.164;2023-06-22T14:41:13;28.37;;;7.63;;
151;SDS011;68;48.792;9.164;2023-06-22T14:43:44;29.60;;;6.93;;
151;SDS011;68;48.792;9.164;2023-06-22T14:46:12;32.13;;;7.50;;
151;SDS011;68;48.792;9.164;2023-06-22T14:48:39;27.00;;;6.90;;
151;SDS011;68;48.792;9.164;2023-06-22T14:51:05;37.07;;;8.03;;
151;SDS011;68;48.792;9.164;2023-06-22T14:53:34;27.80;;;6.70;;
151;SDS011;68;48.792;9.164;2023-06-22T14:56:00;30.73;;;7.10;;
151;SDS011;68;48.792;9.164;2023-06-22T14:58:27;23.50;;;5.90;;
151;SDS011;68;48.792;9.164;2023-06-22T15:00:55;28.27;;;6.10;;
151;SDS011;68;48.792;9.164;2023-06-22T15:03:21;30.23;;;7.10;;
151;SDS011;68;48.792;9.164;2023-06-22T15:05:52;33.23;;;5.67;;
151;SDS011;68;48.792;9.164;2023-06-22T15:08:19;35.77;;;5.30;;
151;SDS011;68;48.792;9.164;2023-06-22T15:10:48;29.27;;;4.63;;
151;SDS011;68;48.792;9.164;2023-06-22T15:13:15;26.70;;;5.73;;
151;SDS011;68;48.792;9.164;2023-06-22T15:15:42;31.43;;;4.90;;
151;SDS011;68;48.792;9.164;2023-06-22T15:18:09;28.40;;;5.83;;
151;SDS011;68;48.792;9.164;2023-06-22T15:20:35;27.63;;;5.37;;
151;SDS011;68;48.792;9.164;2023-06-22T15:23:02;31.93;;;6.43;;
151;SDS011;68;48.792;9.164;2023-06-22T15:25:29;33.07;;;5.30;;
151;SDS011;68;48.792;9.164;2023-06-22T15:27:57;37.33;;;5.40;;
151;SDS011;68;48.792;9.164;2023-06-22T15:30:24;26.60;;;4.90;;
151;SDS011;68;48.792;9.164;2023-06-22T15:32:51;35.07;;;4.93;;
151;SDS011;68;48.792;9.164;2023-06-22T15:35:17;31.27;;;5.10;;
151;SDS011;68;48.792;9.164;2023-06-22T15:37:44;32.27;;;5.37;;
151;SDS011;68;48.792;9.164;2023-06-22T15:40:11;31.30;;;5.20;;
151;SDS011;68;48.792;9.164;2023-06-22T15:42:38;26.90;;;4.47;;
151;SDS011;68;48.792;9.164;2023-06-22T15:45:07;23.67;;;4.83;;
151;SDS011;68;48.792;9.164;2023-06-22T15:47:34;29.43;;;4.97;;
151;SDS011;68;48.792;9.164;2023-06-22T15:50:02;30.20;;;4.97;;
151;SDS011;68;48.792;9.164;2023-06-22T15:52:29;25.33;;;5.37;;
151;SDS011;68;48.792;9.164;2023-06-22T15:54:56;27.10;;;5.20;;
151;SDS011;68;48.792;9.164;2023-06-22T15:57:25;31.63;;;4.90;;
151;SDS011;68;48.792;9.164;2023-06-22T15:59:53;29.83;;;5.00;;
151;SDS011;68;48.792;9.164;2023-06-22T16:02:21;26.40;;;5.17;;
151;SDS011;68;48.792;9.164;2023-06-22T16:04:47;29.97;;;5.20;;
151;SDS011;68;48.792;9.164;2023-06-22T16:07:15;32.97;;;5.50;;
151;SDS011;68;48.792;9.164;2023-06-22T16:09:42;29.17;;;5.53;;
151;SDS011;68;48.792;9.164;2023-06-22T16:12:09;26.20;;;5.50;;
151;SDS011;68;48.792;9.164;2023-06-22T16:14:36;26.77;;;6.40;;
151;SDS011;68;48.792;9.164;2023-06-22T16:17:05;32.00;;;6.20;;
151;SDS011;68;48.792;9.164;2023-06-22T16:19:33;28.83;;;5.83;;
151;SDS011;68;48.792;9.164;2023-06-22T16:22:00;26.37;;;4.90;;
151;SDS011;68;48.792;9.164;2023-06-22T16:24:27;33.47;;;4.57;;
151;SDS011;68;48.792;9.164;2023-06-22T16:26:53;32.30;;;5.40;;
151;SDS011;68;48.792;9.164;2023-06-22T16:29:20;26.10;;;4.53;;
151;SDS011;68;48.792;9.164;2023-06-22T16:31:47;25.50;;;5.10;;
151;SDS011;68;48.792;9.164;2023-06-22T16:34:14;29.67;;;4.97;;
151;SDS011;68;48.792;9.164;2023-06-22T16:36:42;27.20;;;5.10;;
151;SDS011;68;48.792;9.164;2023-06-22T16:39:09;21.90;;;4.23;;
151;SDS011;68;48.792;9.164;2023-06-22T16:41:35;27.67;;;4.90;;
151;SDS011;68;48.792;9.164;2023-06-22T16:44:02;26.50;;;5.80;;
151;SDS011;68;48.792;9.164;2023-06-22T16:46:31;22.93;;;4.97;;
151;SDS011;68;48.792;9.164;2023-06-22T16:48:59;32.07;;;5.17;;
151;SDS011;68;48.792;9.164;2023-06-22T16:51:25;25.23;;;5.87;;
151;SDS011;68;48.792;9.164;2023-06-22T16:53:54;31.63;;;6.00;;
151;SDS011;68;48.792;9.164;2023-06-22T16:56:23;23.60;;;5.20;;
151;SDS011;68;48.792;9.164;2023-06-22T16:58:51;29.20;;;6.13;;
151;SDS011;68;48.792;9.164;2023-06-22T17:01:20;29.13;;;6.00;;
151;SDS011;68;48.792;9.164;2023-06-22T17:03:51;44.90;;;5.90;;
151;SDS011;68;48.792;9.164;2023-06-22T17:06:25;32.13;;;5.43;;
151;SDS011;68;48.792;9.164;2023-06-22T17:08:51;27.07;;;5.50;;
151;SDS011;68;48.792;9.164;2023-06-22T17:11:22;25.63;;;5.27;;
151;SDS011;68;48.792;9.164;2023-06-22T17:13:49;27.53;;;5.60;;
151;SDS011;68;48.792;9.164;2023-06-22T17:16:16;30.17;;;5.30;;
151;SDS011;68;48.792;9.164;2023-06-22T17:18:45;33.87;;;5.70;;
151;SDS011;68;48.792;9.164;2023-06-22T17:21:13;32.23;;;5.90;;
151;SDS011;68;48.792;9.164;2023-06-22T17:23:47;31.13;;;5.80;;
151;SDS011;68;48.792;9.164;2023-06-22T17:26:15;25.10;;;5.07;;
151;SDS011;68;48.792;9.164;2023-06-22T17:28:45;30.03;;;5.70;;
151;SDS011;68;48.792;9.164;2023-06-22T17:31:12;26.43;;;4.90;;
151;SDS011;68;48.792;9.164;2023-06-22T17:33:39;27.83;;;5.10;;
151;SDS011;68;48.792;9.164;2023-06-22T17:36:09;29.37;;;5.30;;
151;SDS011;68;48.792;9.164;2023-06-22T17:38:37;26.37;;;5.43;;
151;SDS011;68;48.792;9.164;2023-06-22T17:41:04;23.93;;;4.90;;
151;SDS011;68;48.792;9.164;2023-06-22T17:43:32;27.73;;;5.50;;
151;SDS011;68;48.792;9.164;2023-06-22T17:46:08;31.83;;;5.10;;
151;SDS011;68;48.792;9.164;2023-06-22T17:48:36;22.73;;;5.60;;
151;SDS011;68;48.792;9.164;2023-06-22T17:51:03;26.40;;;5.23;;
151;SDS011;68;48.792;9.164;2023-06-22T17:53:31;31.00;;;5.20;;
151;SDS011;68;48.792;9.164;2023-06-22T17:55:58;34.23;;;5.23;;
151;SDS011;68;48.792;9.164;2023-06-22T17:58:26;33.23;;;5.30;;
151;SDS011;68;48.792;9.164;2023-06-22T18:00:54;27.23;;;4.60;;
151;SDS011;68;48.792;9.164;2023-06-22T18:03:23;22.60;;;5.07;;
151;SDS011;68;48.792;9.164;2023-06-22T18:05:50;23.53;;;4.80;;
151;SDS011;68;48.792;9.164;2023-06-22T18:08:18;25.30;;;4.70;;
151;SDS011;68;48.792;9.164;2023-06-22T18:10:51;29.20;;;5.33;;
151;SDS011;68;48.792;9.164;2023-06-22T18:13:22;24.90;;;5.20;;
151;SDS011;68;48.792;9.164;2023-06-22T18:15:50;32.97;;;5.50;;
151;SDS011;68;48.792;9.164;2023-06-22T18:18:20;24.83;;;4.63;;
151;SDS011;68;48.792;9.164;2023-06-22T18:20:49;22.37;;;4.30;;
151;SDS011;68;48.792;9.164;2023-06-22T18:23:17;25.00;;;5.00;;
151;SDS011;68;48.792;9.164;2023-06-22T18:25:45;28.07;;;4.60;;
151;SDS011;68;48.792;9.164;2023-06-22T18:28:13;27.53;;;4.97;;
151;SDS011;68;48.792;9.164;2023-06-22T18:30:42;22.30;;;4.90;;
151;SDS011;68;48.792;9.164;2023-06-22T18:33:09;30.20;;;4.67;;
151;SDS011;68;48.792;9.164;2023-06-22T18:35:37;29.37;;;4.70;;
151;SDS011;68;48.792;9.164;2023-06-22T18:38:04;25.30;;;4.30;;
151;SDS011;68;48.792;9.164;2023-06-22T18:40:32;20.17;;;4.30;;
151;SDS011;68;48.792;9.164;2023-06-22T18:43:00;21.47;;;4.47;;
151;SDS011;68;48.792;9.164;2023-06-22T18:45:28;25.40;;;4.00;;
151;SDS011;68;48.792;9.164;2023-06-22T18:48:01;19.53;;;3.63;;
151;SDS011;68;48.792;9.164;2023-06-22T18:50:40;26.07;;;4.03;;
151;SDS011;68;48.792;9.164;2023-06-22T18:53:11;23.03;;;4.20;;
151;SDS011;68;48.792;9.164;2023-06-22T18:55:41;22.50;;;4.90;;
151;SDS011;68;48.792;9.164;2023-06-22T18:58:13;19.33;;;3.80;;
151;SDS011;68;48.792;9.164;2023-06-22T19:00:41;21.83;;;4.70;;
151;SDS011;68;48.792;9.164;2023-06-22T19:03:07;22.03;;;4.67;;
151;SDS011;68;48.792;9.164;2023-06-22T19:05:37;23.53;;;4.33;;
151;SDS011;68;48.792;9.164;2023-06-22T19:08:06;23.10;;;4.30;;
151;SDS011;68;48.792;9.164;2023-06-22T19:10:39;24.30;;;5.00;;
151;SDS011;68;48.792;9.164;2023-06-22T19:13:18;21.57;;;4.53;;
151;SDS011;68;48.792;9.164;2023-06-22T19:15:46;22.50;;;4.83;;
151;SDS011;68;48.792;9.164;2023-06-22T19:18:14;25.20;;;5.10;;
151;SDS011;68;48.792;9.164;2023-06-22T19:20:43;20.87;;;4.50;;
151;SDS011;68;48.792;9.164;2023-06-22T19:23:27;22.83;;;5.03;;
151;SDS011;68;48.792;9.164;2023-06-22T19:25:55;22.23;;;5.37;;
151;SDS011;68;48.792;9.164;2023-06-22T19:28:24;27.53;;;5.00;;
151;SDS011;68;48.792;9.164;2023-06-22T19:30:51;22.27;;;4.73;;
151;SDS011;68;48.792;9.164;2023-06-22T19:33:20;21.70;;;5.00;;
151;SDS011;68;48.792;9.164;2023-06-22T19:35:48;21.03;;;5.30;;
151;SDS011;68;48.792;9.164;2023-06-22T19:38:16;26.20;;;5.47;;
151;SDS011;68;48.792;9.164;2023-06-22T19:40:43;21.03;;;4.77;;
151;SDS011;68;48.792;9.164;2023-06-22T19:43:11;22.63;;;5.67;;
151;SDS011;68;48.792;9.164;2023-06-22T19:45:39;23.70;;;5.67;;
151;SDS011;68;48.792;9.164;2023-06-22T19:48:07;28.40;;;5.10;;
151;SDS011;68;48.792;9.164;2023-06-22T19:50:35;24.20;;;5.70;;
151;SDS011;68;48.792;9.164;2023-06-22T19:53:07;22.03;;;5.57;;
151;SDS011;68;48.792;9.164;2023-06-22T19:55:36;26.67;;;4.90;;
151;SDS011;68;48.792;9.164;2023-06-22T19:58:05;26.77;;;5.40;;
151;SDS011;68;48.792;9.164;2023-06-22T20:00:32;22.53;;;6.03;;